HDGA4: War Eagle Creek At Hindsville, AR

                                SHEF ID:       HDGA4     War Eagle Crk nr Hindsville,AR
STATION TYPE:

STAGE RIV-FLOW WTR-TEMP CONDUCT BAT-LOAD
ft cfs F umho/cm volt
Ccp-Rev Ccp-Rev Ccp-Rev Ccp-Rev Ccp-Rev
(America/Chicago)
11/25 00:00 1.39 161 57.78 ---- 10.99
11/25 01:00 1.39 161 57.74 ---- 10.99
11/25 02:00 1.39 161 57.72 ---- 10.99
11/25 03:00 1.39 161 57.69 ---- 10.98
11/25 04:00 1.39 161 57.67 ---- 10.97
11/25 05:00 1.40 163 57.65 ---- 10.97
11/25 06:00 1.40 163 57.61 ---- 10.97
11/25 07:00 1.42 167 57.60 ---- 10.97
11/25 08:00 1.44 171 57.56 ---- 10.96
11/25 09:00 1.47 177 57.60 ---- 11.00
11/25 10:00 1.50 183 57.72 ---- 11.20
11/25 11:00 1.53 189 57.88 ---- 11.19
11/25 12:00 1.56 195 57.99 ---- 11.17
11/25 13:00 1.60 203 58.15 ---- 11.26
11/25 14:00 1.64 212 58.19 ---- 11.25
11/25 15:00 1.69 223 58.21 ---- 11.22
11/25 16:00 1.74 234 58.17 ---- 11.18
11/25 17:00 1.77 241 58.06 ---- 11.15
11/25 18:00 1.81 250 57.79 ---- 11.09
11/25 19:00 1.84 257 57.60 ---- 11.06
11/25 20:00 1.87 264 57.36 ---- 11.03
11/25 21:00 1.90 271 57.13 ---- 11.00
11/25 22:00 1.92 276 56.91 ---- 10.99
11/25 23:00 1.93 278 56.66 ---- 10.96
Data processed at Wed 26Nov2025 05:13 GMT

NOTICE: If you are parsing this page

Please convert to using our Data API. Starting January 1st, 2026 we will be migrating to: https://water.usace.army.mil with modern pages rendered in JavaScript. You will no longer be able to scrape this page! CWMSDataAPI (CDA)

Timeseries IDs (TSIDs)

TSIDs used from left to right in the data table
HIND.Stage.Inst.1Hour.0.Ccp-Rev
HIND.Flow.Inst.1Hour.0.Ccp-Rev
HIND.Temp-Water.Inst.1Hour.0.Ccp-Rev
HIND.Cond.Inst.1Hour.0.Ccp-Rev
HIND.Volt-Battery Load.Inst.1Hour.0.Ccp-Rev

                            

All information presented herein is the property of the government of the United States of America and may be revised or deleted at any time without prior notice. Dissemination of this information without the expressed written consent of the Public Affairs Office, Tulsa District U.S. Army Corps of Engineers is strictly prohibited. These data are gathered electronically and, as presented, have NOT undergone any form of quality control. These data are NOT guaranteed to be valid or correct.